Time;durP1;ratioP1;P1;durP2;ratioP2;P2;SDS_P1;SDS_P2;PMS_P1;PMS_P2;Temp;Humidity;BMP_temperature;BMP_pressure;BME280_temperature;BME280_humidity;BME280_pressure;Samples;Min_cycle;Max_cycle;Signal;HPM_P1;HPM_P2
2024/04/17 00:01:09;;;;;;;6.47;3.10;;;;;;;;;;777017;179;801193;-71
2024/04/17 00:03:35;;;;;;;11.70;2.97;;;;;;;;;;775912;179;905887;-72
2024/04/17 00:06:01;;;;;;;4.50;2.67;;;;;;;;;;776497;178;800136;-72
2024/04/17 00:08:27;;;;;;;9.23;2.43;;;;;;;;;;777770;180;776289;-73
2024/04/17 00:10:52;;;;;;;6.50;3.07;;;;;;;;;;774635;179;778119;-71
2024/04/17 00:13:18;;;;;;;5.73;3.50;;;;;;;;;;777045;180;714132;-73
2024/04/17 00:15:44;;;;;;;4.50;2.00;;;;;;;;;;779300;178;715754;-73
2024/04/17 00:18:10;;;;;;;4.10;2.30;;;;;;;;;;777008;179;626087;-73
2024/04/17 00:20:36;;;;;;;4.87;2.00;;;;;;;;;;775761;179;921341;-73
2024/04/17 00:23:02;;;;;;;8.00;2.87;;;;;;;;;;779341;179;857299;-73
2024/04/17 00:25:27;;;;;;;5.20;2.47;;;;;;;;;;773164;180;666442;-73
2024/04/17 00:27:53;;;;;;;3.53;1.80;;;;;;;;;;775446;179;814880;-73
2024/04/17 00:30:19;;;;;;;4.47;2.37;;;;;;;;;;779126;178;760688;-73
2024/04/17 00:32:45;;;;;;;8.33;2.97;;;;;;;;;;774543;179;922772;-73
2024/04/17 00:35:11;;;;;;;4.43;2.37;;;;;;;;;;773279;178;814401;-72
2024/04/17 00:37:37;;;;;;;6.10;2.40;;;;;;;;;;770022;179;818318;-74
2024/04/17 00:40:02;;;;;;;5.83;2.77;;;;;;;;;;779419;179;617136;-73
2024/04/17 00:42:28;;;;;;;3.80;2.10;;;;;;;;;;773448;179;815909;-72
2024/04/17 00:44:54;;;;;;;6.90;2.50;;;;;;;;;;773410;179;814690;-73
2024/04/17 00:47:20;;;;;;;4.80;2.30;;;;;;;;;;781593;179;628249;-73
2024/04/17 00:49:46;;;;;;;5.43;2.53;;;;;;;;;;779942;178;640113;-73
2024/04/17 00:52:12;;;;;;;5.83;2.60;;;;;;;;;;777516;179;916410;-72
2024/04/17 00:54:37;;;;;;;4.73;2.63;;;;;;;;;;782124;178;917998;-72
2024/04/17 00:57:04;;;;;;;7.47;2.50;;;;;;;;;;776969;178;910934;-71
2024/04/17 00:59:29;;;;;;;8.90;3.23;;;;;;;;;;773990;178;755887;-72
2024/04/17 01:01:56;;;;;;;6.47;2.65;;;;;;;;;;774273;179;617865;-73
2024/04/17 01:04:21;;;;;;;8.17;2.50;;;;;;;;;;776381;178;859350;-72
2024/04/17 01:06:47;;;;;;;5.33;2.50;;;;;;;;;;773903;179;916786;-72
2024/04/17 01:09:13;;;;;;;4.23;2.30;;;;;;;;;;774094;179;826390;-73
2024/04/17 01:11:39;;;;;;;5.73;2.60;;;;;;;;;;781344;179;729134;-73
2024/04/17 01:14:05;;;;;;;7.60;2.73;;;;;;;;;;775606;179;914402;-72
2024/04/17 01:16:31;;;;;;;8.10;2.60;;;;;;;;;;774117;180;837602;-73
2024/04/17 01:18:56;;;;;;;7.33;3.00;;;;;;;;;;779557;179;769968;-72
2024/04/17 01:21:22;;;;;;;8.23;4.10;;;;;;;;;;775802;179;902893;-73
2024/04/17 01:23:49;;;;;;;5.33;2.33;;;;;;;;;;780241;179;649200;-74
2024/04/17 01:26:15;;;;;;;6.17;3.27;;;;;;;;;;778663;179;738924;-73
2024/04/17 01:28:41;;;;;;;4.97;2.73;;;;;;;;;;776804;179;802034;-73
2024/04/17 01:31:07;;;;;;;8.03;2.60;;;;;;;;;;775198;179;815006;-73
2024/04/17 01:33:32;;;;;;;4.60;2.87;;;;;;;;;;776609;179;814641;-74
2024/04/17 01:35:58;;;;;;;6.13;3.00;;;;;;;;;;770634;180;687673;-72
2024/04/17 01:38:24;;;;;;;5.72;2.80;;;;;;;;;;773308;179;816770;-72
2024/04/17 01:40:50;;;;;;;5.50;3.53;;;;;;;;;;777112;179;710857;-73
2024/04/17 01:43:16;;;;;;;5.20;2.37;;;;;;;;;;780610;179;821548;-72
2024/04/17 01:45:43;;;;;;;4.68;2.55;;;;;;;;;;775484;180;708326;-71
2024/04/17 01:48:09;;;;;;;4.70;3.43;;;;;;;;;;778937;179;735901;-71
2024/04/17 01:50:35;;;;;;;7.80;3.90;;;;;;;;;;780203;179;643382;-72
2024/04/17 01:53:01;;;;;;;9.90;4.07;;;;;;;;;;769469;178;919311;-73
2024/04/17 01:55:26;;;;;;;5.80;3.43;;;;;;;;;;772086;179;861645;-73
2024/04/17 01:57:54;;;;;;;7.70;3.20;;;;;;;;;;778289;179;930210;-71
2024/04/17 02:00:18;;;;;;;6.70;3.17;;;;;;;;;;774666;179;682522;-71
2024/04/17 02:02:44;;;;;;;7.87;3.47;;;;;;;;;;779161;178;724760;-72
2024/04/17 02:05:10;;;;;;;6.33;2.90;;;;;;;;;;778729;179;814610;-72
2024/04/17 02:07:36;;;;;;;6.63;3.43;;;;;;;;;;782842;178;823555;-71
2024/04/17 02:10:02;;;;;;;11.77;3.25;;;;;;;;;;772938;179;845669;-71
2024/04/17 02:12:27;;;;;;;6.90;3.43;;;;;;;;;;776829;179;711936;-72
2024/04/17 02:14:53;;;;;;;4.43;3.07;;;;;;;;;;776816;179;811184;-71
2024/04/17 02:17:19;;;;;;;10.40;3.33;;;;;;;;;;776220;178;791096;-70
2024/04/17 02:19:45;;;;;;;5.10;3.00;;;;;;;;;;775514;179;830519;-72
2024/04/17 02:22:11;;;;;;;4.93;3.07;;;;;;;;;;780895;179;719284;-71
2024/04/17 02:24:36;;;;;;;4.90;3.47;;;;;;;;;;768617;180;911888;-71
2024/04/17 02:27:02;;;;;;;6.13;2.63;;;;;;;;;;775040;179;812655;-72
2024/04/17 02:29:28;;;;;;;5.23;3.00;;;;;;;;;;782377;178;801168;-72
2024/04/17 02:31:54;;;;;;;4.73;3.00;;;;;;;;;;778813;179;714313;-72
2024/04/17 02:34:20;;;;;;;4.40;2.80;;;;;;;;;;776499;178;834394;-72
2024/04/17 02:36:46;;;;;;;4.13;2.50;;;;;;;;;;770932;179;912286;-72
2024/04/17 02:39:12;;;;;;;4.17;2.97;;;;;;;;;;780045;179;813338;-71
2024/04/17 02:41:37;;;;;;;4.53;2.90;;;;;;;;;;773134;179;906045;-70
2024/04/17 02:44:03;;;;;;;4.93;2.80;;;;;;;;;;775361;179;736021;-72
2024/04/17 02:46:29;;;;;;;4.07;2.90;;;;;;;;;;780592;179;813562;-71
2024/04/17 02:48:55;;;;;;;3.17;2.20;;;;;;;;;;771307;179;882992;-70
2024/04/17 02:51:21;;;;;;;4.53;3.12;;;;;;;;;;774404;180;783301;-70
2024/04/17 02:53:47;;;;;;;4.40;2.57;;;;;;;;;;776359;180;921415;-71
2024/04/17 02:56:13;;;;;;;5.30;3.10;;;;;;;;;;778667;178;721190;-72
2024/04/17 02:58:38;;;;;;;6.10;3.00;;;;;;;;;;777611;179;815190;-70
2024/04/17 03:01:09;;;;;;;4.27;2.60;;;;;;;;;;776978;178;793472;-71
2024/04/17 03:03:34;;;;;;;4.30;2.40;;;;;;;;;;776827;179;913957;-70
2024/04/17 03:06:00;;;;;;;4.43;2.80;;;;;;;;;;772023;179;711447;-71
2024/04/17 03:08:26;;;;;;;3.63;2.53;;;;;;;;;;772366;179;912551;-71
2024/04/17 03:10:52;;;;;;;3.83;2.42;;;;;;;;;;777110;179;901716;-71
2024/04/17 03:13:18;;;;;;;9.40;2.90;;;;;;;;;;773197;178;815205;-72
2024/04/17 03:15:44;;;;;;;4.65;3.17;;;;;;;;;;778627;178;797266;-72
2024/04/17 03:18:09;;;;;;;6.23;3.80;;;;;;;;;;780461;177;783972;-70
2024/04/17 03:20:35;;;;;;;7.63;4.37;;;;;;;;;;776419;179;834666;-72
2024/04/17 03:23:01;;;;;;;4.73;3.10;;;;;;;;;;780693;179;769796;-71
2024/04/17 03:25:27;;;;;;;6.10;3.12;;;;;;;;;;777701;178;719178;-72
2024/04/17 03:27:53;;;;;;;4.47;3.17;;;;;;;;;;776578;179;754607;-71
2024/04/17 03:30:20;;;;;;;5.60;3.07;;;;;;;;;;775539;179;915178;-73
2024/04/17 03:32:45;;;;;;;5.73;3.10;;;;;;;;;;775414;178;701778;-73
2024/04/17 03:35:11;;;;;;;6.83;2.70;;;;;;;;;;778568;179;649899;-73
2024/04/17 03:37:37;;;;;;;7.80;2.97;;;;;;;;;;772507;179;803658;-73
2024/04/17 03:40:04;;;;;;;5.60;2.93;;;;;;;;;;777295;178;869015;-71
2024/04/17 03:42:28;;;;;;;5.57;3.43;;;;;;;;;;778554;178;710942;-70
2024/04/17 03:44:54;;;;;;;7.80;3.80;;;;;;;;;;774921;179;810445;-72
2024/04/17 03:47:20;;;;;;;7.13;3.20;;;;;;;;;;777254;179;711585;-72
2024/04/17 03:49:46;;;;;;;4.80;3.10;;;;;;;;;;776023;179;654092;-71
2024/04/17 03:52:12;;;;;;;4.07;2.60;;;;;;;;;;773056;179;803604;-71
2024/04/17 03:54:38;;;;;;;3.90;2.50;;;;;;;;;;771105;179;710211;-71
2024/04/17 03:57:04;;;;;;;3.70;2.07;;;;;;;;;;776674;179;815723;-73
2024/04/17 03:59:29;;;;;;;5.10;2.67;;;;;;;;;;777859;179;764825;-71
2024/04/17 04:01:55;;;;;;;3.10;2.17;;;;;;;;;;772173;179;918364;-72
2024/04/17 04:04:21;;;;;;;4.70;2.92;;;;;;;;;;775774;179;636581;-73
2024/04/17 04:06:47;;;;;;;5.73;2.63;;;;;;;;;;781250;179;613564;-73
2024/04/17 04:09:13;;;;;;;4.65;2.58;;;;;;;;;;778622;179;630330;-73
2024/04/17 04:11:39;;;;;;;4.90;2.90;;;;;;;;;;778589;179;621937;-73
2024/04/17 04:14:05;;;;;;;5.27;2.53;;;;;;;;;;779825;179;637523;-73
2024/04/17 04:16:33;;;;;;;3.87;2.30;;;;;;;;;;778713;178;639688;-73
2024/04/17 04:18:58;;;;;;;3.67;2.27;;;;;;;;;;772073;179;617454;-74
2024/04/17 04:21:23;;;;;;;3.17;2.13;;;;;;;;;;780815;178;917060;-73
2024/04/17 04:23:49;;;;;;;5.30;3.03;;;;;;;;;;773772;179;778001;-72
2024/04/17 04:26:15;;;;;;;4.30;2.13;;;;;;;;;;775761;177;732904;-72
2024/04/17 04:28:41;;;;;;;6.60;2.23;;;;;;;;;;775131;178;813700;-73
2024/04/17 04:31:07;;;;;;;3.43;2.40;;;;;;;;;;785366;178;631292;-72
2024/04/17 04:33:33;;;;;;;3.63;2.80;;;;;;;;;;778259;178;914887;-71
2024/04/17 04:35:58;;;;;;;4.28;2.50;;;;;;;;;;771270;178;804303;-71
2024/04/17 04:38:24;;;;;;;5.77;3.00;;;;;;;;;;779720;179;720706;-71
2024/04/17 04:40:50;;;;;;;4.37;3.03;;;;;;;;;;774544;179;715053;-72
2024/04/17 04:43:16;;;;;;;10.70;2.77;;;;;;;;;;777819;178;682341;-71
2024/04/17 04:45:42;;;;;;;5.23;2.83;;;;;;;;;;775129;179;637269;-72
2024/04/17 04:48:08;;;;;;;5.57;2.45;;;;;;;;;;776147;178;808491;-72
2024/04/17 04:50:34;;;;;;;4.53;2.90;;;;;;;;;;779488;179;631869;-71
2024/04/17 04:52:59;;;;;;;4.40;2.80;;;;;;;;;;781629;179;634359;-72
2024/04/17 04:55:25;;;;;;;4.57;3.33;;;;;;;;;;772123;180;917448;-73
2024/04/17 04:57:51;;;;;;;4.67;2.97;;;;;;;;;;763624;181;717834;-73
2024/04/17 05:00:17;;;;;;;4.20;2.67;;;;;;;;;;774868;179;666239;-74
2024/04/17 05:02:43;;;;;;;5.40;3.30;;;;;;;;;;780121;179;756904;-75
2024/04/17 05:05:09;;;;;;;4.10;2.53;;;;;;;;;;773619;179;814247;-73
2024/04/17 05:07:35;;;;;;;4.03;2.53;;;;;;;;;;777199;178;756492;-75
2024/04/17 05:10:00;;;;;;;4.13;2.90;;;;;;;;;;773906;179;713178;-75
2024/04/17 05:12:26;;;;;;;4.35;2.87;;;;;;;;;;766493;179;808594;-74
2024/04/17 05:14:52;;;;;;;5.70;3.10;;;;;;;;;;775209;179;703172;-75
2024/04/17 05:17:18;;;;;;;5.53;3.20;;;;;;;;;;780599;179;815214;-73
2024/04/17 05:19:44;;;;;;;4.33;3.30;;;;;;;;;;777998;179;753611;-73
2024/04/17 05:22:09;;;;;;;5.27;3.10;;;;;;;;;;776376;178;715174;-74
2024/04/17 05:24:35;;;;;;;9.33;3.50;;;;;;;;;;776217;179;934646;-74
2024/04/17 05:27:01;;;;;;;5.33;3.33;;;;;;;;;;757347;181;899187;-74
2024/04/17 05:29:27;;;;;;;4.70;3.00;;;;;;;;;;777575;179;707096;-74
2024/04/17 05:31:53;;;;;;;2.60;1.30;;;;;;;;;;775711;179;942000;-74
2024/04/17 05:34:19;;;;;;;3.37;2.17;;;;;;;;;;777917;178;816077;-73
2024/04/17 05:36:44;;;;;;;3.20;2.00;;;;;;;;;;779024;179;645410;-74
2024/04/17 05:39:10;;;;;;;3.67;2.30;;;;;;;;;;777331;178;793348;-72
2024/04/17 05:41:36;;;;;;;3.37;1.83;;;;;;;;;;783282;179;696799;-73
2024/04/17 05:44:02;;;;;;;2.87;1.58;;;;;;;;;;780063;179;711038;-72
2024/04/17 05:46:28;;;;;;;2.60;1.40;;;;;;;;;;772002;179;898923;-73
2024/04/17 05:48:54;;;;;;;2.80;1.23;;;;;;;;;;779448;178;715833;-73
2024/04/17 05:51:20;;;;;;;7.80;4.73;;;;;;;;;;781880;178;647877;-73
2024/04/17 05:53:46;;;;;;;3.28;1.60;;;;;;;;;;776301;179;773937;-73
2024/04/17 05:56:12;;;;;;;5.93;3.87;;;;;;;;;;780519;179;941082;-73
2024/04/17 05:58:38;;;;;;;4.67;1.90;;;;;;;;;;774779;179;813916;-73
2024/04/17 06:01:04;;;;;;;4.20;1.90;;;;;;;;;;775113;178;710319;-73
2024/04/17 06:03:30;;;;;;;3.33;1.83;;;;;;;;;;778260;179;711128;-73
2024/04/17 06:05:56;;;;;;;3.80;2.60;;;;;;;;;;777074;180;672160;-73
2024/04/17 06:08:22;;;;;;;4.30;2.97;;;;;;;;;;774432;179;739012;-72
2024/04/17 06:10:48;;;;;;;3.40;1.63;;;;;;;;;;776895;179;789154;-73
2024/04/17 06:13:13;;;;;;;7.80;2.20;;;;;;;;;;778654;178;805049;-73
2024/04/17 06:15:39;;;;;;;10.80;9.70;;;;;;;;;;777404;177;714087;-73
2024/04/17 06:18:06;;;;;;;2.93;1.67;;;;;;;;;;771009;180;765252;-72
2024/04/17 06:20:31;;;;;;;2.40;1.50;;;;;;;;;;774496;180;800361;-72
2024/04/17 06:22:57;;;;;;;2.33;1.20;;;;;;;;;;774727;179;774806;-73
2024/04/17 06:25:23;;;;;;;2.50;1.50;;;;;;;;;;778690;178;618102;-72
2024/04/17 06:27:48;;;;;;;3.17;1.57;;;;;;;;;;774131;179;815905;-72
2024/04/17 06:30:14;;;;;;;2.87;1.80;;;;;;;;;;777099;178;707383;-73
2024/04/17 06:32:41;;;;;;;2.53;1.30;;;;;;;;;;778143;177;731342;-73
2024/04/17 06:35:06;;;;;;;2.97;2.00;;;;;;;;;;773229;179;870046;-74
2024/04/17 06:37:32;;;;;;;2.30;1.20;;;;;;;;;;779694;179;629928;-73
2024/04/17 06:39:58;;;;;;;4.03;2.67;;;;;;;;;;774680;178;627088;-73
2024/04/17 06:42:24;;;;;;;2.50;1.27;;;;;;;;;;775902;179;808594;-72
2024/04/17 06:44:49;;;;;;;5.37;1.67;;;;;;;;;;776362;179;937814;-74
2024/04/17 06:47:15;;;;;;;2.30;1.30;;;;;;;;;;768214;180;727152;-73
2024/04/17 06:49:41;;;;;;;3.70;1.80;;;;;;;;;;776792;179;814727;-74
2024/04/17 06:52:07;;;;;;;4.77;2.30;;;;;;;;;;775910;180;916609;-73
2024/04/17 06:54:33;;;;;;;3.87;2.70;;;;;;;;;;774103;178;811777;-71
2024/04/17 06:56:59;;;;;;;4.07;2.33;;;;;;;;;;775106;179;748838;-73
2024/04/17 06:59:24;;;;;;;3.20;1.90;;;;;;;;;;776554;179;792451;-74
2024/04/17 07:01:50;;;;;;;2.40;1.30;;;;;;;;;;777122;178;760975;-74
2024/04/17 07:04:16;;;;;;;5.37;3.10;;;;;;;;;;776271;179;814323;-73
2024/04/17 07:06:42;;;;;;;5.43;3.13;;;;;;;;;;776313;179;816101;-73
2024/04/17 11:59:31;;;;;;;4.77;3.00;;;;;;;;;;778147;170;900898;-72
2024/04/17 12:01:57;;;;;;;3.87;2.77;;;;;;;;;;765489;180;877192;-72
2024/04/17 12:04:29;;;;;;;19.63;11.93;;;;;;;;;;755448;183;815248;-72
2024/04/17 12:06:49;;;;;;;22.63;13.50;;;;;;;;;;752325;183;695862;-71
2024/04/17 12:09:15;;;;;;;7.33;2.70;;;;;;;;;;751512;183;698823;-72
2024/04/17 12:11:40;;;;;;;4.40;2.87;;;;;;;;;;757181;184;716156;-72
2024/04/17 12:14:06;;;;;;;5.40;4.30;;;;;;;;;;753645;183;917808;-72
2024/04/17 12:16:32;;;;;;;4.30;2.53;;;;;;;;;;757956;184;674138;-73
2024/04/17 12:18:58;;;;;;;4.80;4.20;;;;;;;;;;752979;183;915598;-72
2024/04/17 12:21:24;;;;;;;4.47;2.60;;;;;;;;;;747475;187;813261;-70
2024/04/17 12:23:51;;;;;;;7.07;3.00;;;;;;;;;;757420;184;745879;-71
2024/04/17 12:28:47;;;;;;;4.50;2.90;;;;;;;;;;769484;181;919147;-71
2024/04/17 12:31:13;;;;;;;5.40;3.80;;;;;;;;;;762598;183;910011;-70
2024/04/17 12:33:39;;;;;;;5.53;2.95;;;;;;;;;;767893;183;667240;-70
2024/04/17 12:36:05;;;;;;;5.70;3.20;;;;;;;;;;771386;182;657396;-70
2024/04/17 12:38:31;;;;;;;6.33;3.90;;;;;;;;;;766717;179;788220;-75
2024/04/17 12:40:57;;;;;;;5.20;2.40;;;;;;;;;;767310;182;774651;-74
2024/04/17 12:43:23;;;;;;;5.60;4.00;;;;;;;;;;768620;180;767013;-75
2024/04/17 12:45:49;;;;;;;17.13;8.13;;;;;;;;;;771629;182;724846;-75
2024/04/17 12:48:16;;;;;;;15.40;6.23;;;;;;;;;;765361;182;830321;-74
2024/04/17 12:50:41;;;;;;;6.13;4.00;;;;;;;;;;768646;182;663307;-75
2024/04/17 12:53:08;;;;;;;7.90;3.63;;;;;;;;;;771249;182;651013;-74
2024/04/17 12:55:32;;;;;;;6.63;3.93;;;;;;;;;;767202;182;804436;-74
2024/04/17 12:57:58;;;;;;;6.80;3.97;;;;;;;;;;767086;182;816686;-74
2024/04/17 13:00:24;;;;;;;6.20;3.80;;;;;;;;;;769342;183;623820;-72
2024/04/17 13:02:50;;;;;;;4.90;2.83;;;;;;;;;;766306;181;730170;-71
2024/04/17 13:05:16;;;;;;;4.40;2.30;;;;;;;;;;767085;182;816068;-72
2024/04/17 13:07:42;;;;;;;3.97;2.40;;;;;;;;;;768106;182;678384;-71
2024/04/17 13:10:09;;;;;;;3.00;1.87;;;;;;;;;;765122;183;764342;-70
2024/04/17 13:12:34;;;;;;;5.67;3.80;;;;;;;;;;766323;182;741886;-69
2024/04/17 13:14:59;;;;;;;3.93;2.00;;;;;;;;;;768175;182;663565;-68
2024/04/17 13:17:25;;;;;;;6.53;1.53;;;;;;;;;;770520;182;812561;-70
2024/04/17 13:19:51;;;;;;;3.00;1.60;;;;;;;;;;766050;182;862766;-68
2024/04/17 13:22:17;;;;;;;2.70;1.48;;;;;;;;;;766751;182;798777;-68
2024/04/17 13:24:43;;;;;;;6.10;2.73;;;;;;;;;;772454;182;653050;-70
2024/04/17 13:27:09;;;;;;;6.60;3.40;;;;;;;;;;768267;182;672162;-68
2024/04/17 13:29:35;;;;;;;6.93;4.37;;;;;;;;;;766522;183;767345;-70
2024/04/17 13:32:00;;;;;;;42.60;28.80;;;;;;;;;;769261;182;817354;-69
2024/04/17 13:34:26;;;;;;;24.40;21.20;;;;;;;;;;765891;182;843589;-69
2024/04/17 13:36:52;;;;;;;6.37;5.33;;;;;;;;;;765626;182;819128;-69
2024/04/17 13:39:18;;;;;;;6.07;4.23;;;;;;;;;;766724;182;793835;-70
2024/04/17 13:41:45;;;;;;;15.53;11.43;;;;;;;;;;771419;180;728658;-71
2024/04/17 13:44:10;;;;;;;9.80;5.73;;;;;;;;;;765461;182;814317;-69
2024/04/17 13:46:36;;;;;;;28.80;16.55;;;;;;;;;;767979;182;764607;-71
2024/04/17 13:49:02;;;;;;;13.47;8.63;;;;;;;;;;767743;183;728960;-71
2024/04/17 13:51:28;;;;;;;5.20;2.92;;;;;;;;;;767267;182;650230;-70
2024/04/17 13:53:54;;;;;;;5.47;2.30;;;;;;;;;;767967;181;713775;-71
2024/04/17 13:56:19;;;;;;;10.07;7.13;;;;;;;;;;768772;183;810298;-71
2024/04/17 13:58:45;;;;;;;3.23;2.10;;;;;;;;;;766772;182;893788;-70
2024/04/17 14:01:11;;;;;;;4.30;1.60;;;;;;;;;;762682;182;861179;-72
2024/04/17 14:03:37;;;;;;;2.53;1.30;;;;;;;;;;771065;182;792115;-72
2024/04/17 14:06:03;;;;;;;2.33;1.17;;;;;;;;;;767541;183;713556;-72
2024/04/17 14:08:29;;;;;;;2.20;1.00;;;;;;;;;;767549;181;731444;-71
2024/04/17 14:10:58;;;;;;;4.37;2.20;;;;;;;;;;765987;182;844313;-72
2024/04/17 14:13:25;;;;;;;2.17;1.07;;;;;;;;;;772403;182;661116;-70
2024/04/17 14:15:49;;;;;;;3.90;3.10;;;;;;;;;;763404;182;842427;-71
2024/04/17 14:18:15;;;;;;;2.63;1.47;;;;;;;;;;763925;182;898022;-71
2024/04/17 14:20:41;;;;;;;2.77;1.43;;;;;;;;;;774002;180;612645;-72
2024/04/17 14:23:07;;;;;;;2.30;1.10;;;;;;;;;;769531;182;693065;-72
2024/04/17 14:25:33;;;;;;;2.87;1.55;;;;;;;;;;764238;182;914449;-73
2024/04/17 14:27:58;;;;;;;2.30;1.20;;;;;;;;;;771201;182;708894;-72
2024/04/17 14:30:24;;;;;;;4.03;1.57;;;;;;;;;;765840;182;759414;-73
2024/04/17 14:32:50;;;;;;;2.50;1.20;;;;;;;;;;765804;182;810946;-70
2024/04/17 14:35:16;;;;;;;1.90;0.80;;;;;;;;;;768051;182;705932;-70
2024/04/17 14:37:42;;;;;;;3.57;1.60;;;;;;;;;;765554;180;906891;-70
2024/04/17 14:40:08;;;;;;;2.70;1.40;;;;;;;;;;768253;182;812137;-70
2024/04/17 14:42:35;;;;;;;3.37;1.83;;;;;;;;;;767541;182;617403;-71
2024/04/17 14:45:00;;;;;;;5.50;2.00;;;;;;;;;;761073;184;632389;-69
2024/04/17 14:47:25;;;;;;;3.53;1.40;;;;;;;;;;752797;184;811773;-71
2024/04/17 14:49:51;;;;;;;4.00;2.07;;;;;;;;;;753925;184;812342;-70
2024/04/17 14:52:17;;;;;;;3.80;1.80;;;;;;;;;;760142;184;710655;-70
2024/04/17 14:54:43;;;;;;;4.20;2.40;;;;;;;;;;753764;184;815537;-70
2024/04/17 14:57:09;;;;;;;4.97;1.90;;;;;;;;;;758143;184;717122;-69
2024/04/17 14:59:34;;;;;;;4.80;3.33;;;;;;;;;;761708;184;814189;-69
2024/04/17 15:02:00;;;;;;;4.03;2.10;;;;;;;;;;749887;186;919108;-69
2024/04/17 15:04:26;;;;;;;29.45;16.83;;;;;;;;;;753797;184;808622;-70
2024/04/17 15:06:55;;;;;;;14.40;9.47;;;;;;;;;;758745;184;649676;-69
2024/04/17 15:09:20;;;;;;;27.77;14.50;;;;;;;;;;761159;180;816343;-69
2024/04/17 15:11:44;;;;;;;12.80;9.70;;;;;;;;;;752693;184;719391;-69
2024/04/17 15:14:09;;;;;;;6.63;4.80;;;;;;;;;;750900;187;712425;-69
2024/04/17 15:16:35;;;;;;;8.23;5.63;;;;;;;;;;741168;190;878692;-69
2024/04/17 15:19:01;;;;;;;6.47;4.43;;;;;;;;;;736791;190;813640;-70
2024/04/17 15:21:29;;;;;;;5.00;3.00;;;;;;;;;;744444;187;712728;-69
2024/04/17 15:23:53;;;;;;;4.93;3.30;;;;;;;;;;751460;185;713855;-69
2024/04/17 15:26:19;;;;;;;5.07;2.70;;;;;;;;;;749047;184;715450;-70
2024/04/17 15:28:45;;;;;;;7.57;4.73;;;;;;;;;;767847;183;688174;-69
2024/04/17 15:31:12;;;;;;;4.23;2.87;;;;;;;;;;771412;182;630589;-69
2024/04/17 15:33:38;;;;;;;4.60;2.10;;;;;;;;;;769055;180;917058;-71
2024/04/17 15:36:04;;;;;;;3.50;2.30;;;;;;;;;;768510;182;826907;-68
2024/04/17 15:38:30;;;;;;;2.70;1.90;;;;;;;;;;765724;182;713120;-70
2024/04/17 15:40:56;;;;;;;4.87;2.40;;;;;;;;;;772367;182;638932;-68
2024/04/17 15:43:22;;;;;;;3.60;2.17;;;;;;;;;;766751;182;815488;-69
2024/04/17 15:45:47;;;;;;;4.87;3.00;;;;;;;;;;764671;182;895227;-69
2024/04/17 15:48:13;;;;;;;4.30;3.20;;;;;;;;;;770338;183;653251;-69
2024/04/17 15:50:39;;;;;;;4.37;2.60;;;;;;;;;;766588;182;814591;-68
2024/04/17 15:53:05;;;;;;;5.30;4.10;;;;;;;;;;768253;180;717735;-68
2024/04/17 15:55:31;;;;;;;3.60;2.37;;;;;;;;;;770404;182;713046;-68
2024/04/17 15:57:57;;;;;;;5.50;3.95;;;;;;;;;;768697;179;752903;-69
2024/04/17 16:00:22;;;;;;;3.70;2.60;;;;;;;;;;764752;182;742830;-70
2024/04/17 16:02:48;;;;;;;5.85;3.45;;;;;;;;;;769685;180;653487;-70
2024/04/17 16:05:14;;;;;;;8.03;7.20;;;;;;;;;;766710;182;654999;-70
2024/04/17 16:07:40;;;;;;;5.27;3.10;;;;;;;;;;764590;180;688157;-69
2024/04/17 16:10:06;;;;;;;4.13;3.23;;;;;;;;;;755820;184;716540;-71
2024/04/17 16:12:32;;;;;;;5.43;3.30;;;;;;;;;;759296;184;812771;-70
2024/04/17 16:14:57;;;;;;;8.20;4.47;;;;;;;;;;765788;182;717409;-69
2024/04/17 16:17:23;;;;;;;6.17;4.60;;;;;;;;;;764800;183;677160;-68
2024/04/17 16:19:49;;;;;;;5.43;2.90;;;;;;;;;;768923;182;814734;-69
2024/04/17 16:22:15;;;;;;;4.00;2.40;;;;;;;;;;763997;182;915341;-68
2024/04/17 16:24:41;;;;;;;3.53;2.58;;;;;;;;;;767097;182;811619;-68
2024/04/17 16:27:07;;;;;;;4.93;2.00;;;;;;;;;;770533;183;693740;-71
2024/04/17 16:29:32;;;;;;;7.73;2.57;;;;;;;;;;764588;182;822176;-69
2024/04/17 16:32:04;;;;;;;3.57;2.40;;;;;;;;;;764372;182;890265;-68
2024/04/17 16:34:24;;;;;;;5.20;3.50;;;;;;;;;;769276;183;661166;-71
2024/04/17 16:36:50;;;;;;;4.20;2.20;;;;;;;;;;765363;182;805749;-70
2024/04/17 16:39:16;;;;;;;4.17;2.80;;;;;;;;;;766638;182;917629;-68
2024/04/17 16:41:42;;;;;;;5.23;2.87;;;;;;;;;;768123;182;636698;-71
2024/04/17 16:44:08;;;;;;;6.30;4.12;;;;;;;;;;770372;181;752147;-69
2024/04/17 16:46:33;;;;;;;4.60;2.80;;;;;;;;;;770041;182;622944;-70
2024/04/17 16:48:59;;;;;;;6.13;3.03;;;;;;;;;;768769;182;713031;-70
2024/04/17 16:51:25;;;;;;;3.87;2.70;;;;;;;;;;772186;182;810732;-68
2024/04/17 16:53:51;;;;;;;4.13;3.07;;;;;;;;;;767440;182;763265;-69
2024/04/17 16:56:17;;;;;;;8.32;3.87;;;;;;;;;;765754;183;802067;-70
2024/04/17 16:58:43;;;;;;;3.70;2.70;;;;;;;;;;771024;182;800089;-67
2024/04/17 17:01:09;;;;;;;5.00;3.60;;;;;;;;;;766020;182;839016;-71
2024/04/17 17:03:34;;;;;;;6.10;4.17;;;;;;;;;;768605;181;703153;-68
2024/04/17 17:06:00;;;;;;;9.67;4.93;;;;;;;;;;771628;182;659740;-70
2024/04/17 17:08:26;;;;;;;6.20;4.17;;;;;;;;;;764190;180;920101;-69
2024/04/17 17:10:53;;;;;;;7.03;4.90;;;;;;;;;;768481;182;653438;-69
2024/04/17 17:13:18;;;;;;;9.63;6.30;;;;;;;;;;766723;179;726795;-69
2024/04/17 17:15:45;;;;;;;9.83;6.77;;;;;;;;;;771379;182;771777;-69
2024/04/17 17:18:10;;;;;;;10.40;5.97;;;;;;;;;;769386;182;623453;-69
2024/04/17 17:20:38;;;;;;;6.93;5.10;;;;;;;;;;768152;183;623739;-70
2024/04/17 17:23:02;;;;;;;7.93;5.23;;;;;;;;;;771344;182;617616;-71
2024/04/17 17:25:27;;;;;;;6.27;4.73;;;;;;;;;;765487;182;720439;-70
2024/04/17 17:27:53;;;;;;;4.27;2.87;;;;;;;;;;766953;183;771835;-70
2024/04/17 17:30:19;;;;;;;5.70;3.97;;;;;;;;;;772961;182;620176;-71
2024/04/17 17:32:45;;;;;;;7.60;4.00;;;;;;;;;;765423;180;673727;-71
2024/04/17 17:35:11;;;;;;;4.07;3.08;;;;;;;;;;765517;182;728960;-71
2024/04/17 17:37:37;;;;;;;8.23;4.60;;;;;;;;;;770584;182;817057;-72
2024/04/17 17:40:04;;;;;;;5.23;3.73;;;;;;;;;;771409;181;639031;-71
2024/04/17 17:42:29;;;;;;;6.03;4.20;;;;;;;;;;767938;182;624522;-71
2024/04/17 17:44:55;;;;;;;4.70;3.90;;;;;;;;;;769502;183;717759;-70
2024/04/17 17:47:21;;;;;;;4.73;3.00;;;;;;;;;;769323;183;867013;-71
2024/04/17 17:49:47;;;;;;;5.93;4.13;;;;;;;;;;766474;183;668169;-71
2024/04/17 17:52:13;;;;;;;5.33;3.60;;;;;;;;;;760489;182;816835;-70
2024/04/17 17:54:39;;;;;;;5.20;3.60;;;;;;;;;;771886;183;624287;-71
2024/04/17 17:57:05;;;;;;;5.50;4.00;;;;;;;;;;771041;182;637316;-72
2024/04/17 17:59:30;;;;;;;4.13;2.93;;;;;;;;;;770615;182;616611;-72
2024/04/17 18:01:56;;;;;;;5.93;3.93;;;;;;;;;;772342;182;724866;-72
2024/04/17 18:04:22;;;;;;;10.43;4.47;;;;;;;;;;765153;182;840293;-71
2024/04/17 18:06:48;;;;;;;5.63;3.70;;;;;;;;;;765542;182;815462;-69
2024/04/17 18:09:14;;;;;;;5.80;3.13;;;;;;;;;;766965;183;816505;-72
2024/04/17 18:11:40;;;;;;;5.93;3.53;;;;;;;;;;761379;183;698610;-70
2024/04/17 18:14:05;;;;;;;4.72;2.58;;;;;;;;;;766091;182;807274;-70
2024/04/17 18:16:32;;;;;;;7.27;3.23;;;;;;;;;;763822;182;1007745;-71
2024/04/17 18:18:57;;;;;;;5.90;3.70;;;;;;;;;;769780;182;838079;-69
2024/04/17 18:21:23;;;;;;;5.43;3.50;;;;;;;;;;765691;182;813054;-70
2024/04/17 18:23:49;;;;;;;6.03;4.62;;;;;;;;;;765241;182;878602;-71
2024/04/17 18:26:18;;;;;;;4.90;3.10;;;;;;;;;;769663;182;837645;-71
2024/04/17 18:28:40;;;;;;;5.95;3.67;;;;;;;;;;766760;183;726288;-70
2024/04/17 18:31:06;;;;;;;6.93;5.17;;;;;;;;;;763886;182;812486;-70
2024/04/17 18:33:32;;;;;;;8.23;5.43;;;;;;;;;;770287;182;806880;-70
2024/04/17 18:35:58;;;;;;;12.00;8.80;;;;;;;;;;768135;182;813649;-71
2024/04/17 18:38:24;;;;;;;6.00;4.20;;;;;;;;;;765767;182;816562;-69
2024/04/17 18:40:52;;;;;;;5.50;3.60;;;;;;;;;;766361;182;830781;-72
2024/04/17 18:43:15;;;;;;;7.10;4.00;;;;;;;;;;761469;184;715012;-70
2024/04/17 18:45:42;;;;;;;7.20;6.10;;;;;;;;;;765443;182;830342;-70
2024/04/17 18:48:07;;;;;;;6.13;3.77;;;;;;;;;;765339;182;918440;-71
2024/04/17 18:50:33;;;;;;;5.50;3.63;;;;;;;;;;766559;183;817103;-71
2024/04/17 18:52:59;;;;;;;6.60;4.53;;;;;;;;;;765973;182;733375;-70
2024/04/17 18:55:25;;;;;;;6.27;3.93;;;;;;;;;;766959;182;796211;-70
2024/04/17 18:57:54;;;;;;;6.87;4.37;;;;;;;;;;770164;182;919732;-73
2024/04/17 19:00:17;;;;;;;6.70;4.37;;;;;;;;;;764516;182;823087;-73
2024/04/17 19:02:42;;;;;;;5.70;3.90;;;;;;;;;;765466;182;817010;-73
2024/04/17 19:05:08;;;;;;;10.97;6.30;;;;;;;;;;769700;182;911517;-73
2024/04/17 19:07:35;;;;;;;8.60;5.87;;;;;;;;;;767718;179;737161;-73
2024/04/17 19:10:00;;;;;;;5.13;3.53;;;;;;;;;;769245;182;789992;-73
2024/04/17 19:12:26;;;;;;;8.10;5.80;;;;;;;;;;767699;179;817797;-73